sensor_id;sensor_type;location;lat;lon;timestamp;temperature;humidity
13798;DHT22;6970;51.340;3.240;2022-08-20T00:00:42;18.30;99.90
13798;DHT22;6970;51.340;3.240;2022-08-20T00:03:23;18.30;99.90
13798;DHT22;6970;51.340;3.240;2022-08-20T00:06:06;18.40;99.90
13798;DHT22;6970;51.340;3.240;2022-08-20T00:08:33;18.40;99.90
13798;DHT22;6970;51.340;3.240;2022-08-20T00:11:01;18.40;99.90
13798;DHT22;6970;51.340;3.240;2022-08-20T00:13:36;18.30;99.90
13798;DHT22;6970;51.340;3.240;2022-08-20T00:16:04;18.30;99.90
13798;DHT22;6970;51.340;3.240;2022-08-20T00:18:32;18.30;99.90
13798;DHT22;6970;51.340;3.240;2022-08-20T00:21:08;18.30;99.90
13798;DHT22;6970;51.340;3.240;2022-08-20T00:23:37;18.30;99.90
13798;DHT22;6970;51.340;3.240;2022-08-20T00:26:05;18.30;99.90
13798;DHT22;6970;51.340;3.240;2022-08-20T00:28:33;18.30;99.90
13798;DHT22;6970;51.340;3.240;2022-08-20T00:31:03;18.30;99.90
13798;DHT22;6970;51.340;3.240;2022-08-20T00:33:30;18.30;99.90
13798;DHT22;6970;51.340;3.240;2022-08-20T00:35:57;18.30;99.90
13798;DHT22;6970;51.340;3.240;2022-08-20T00:38:25;18.30;99.90
13798;DHT22;6970;51.340;3.240;2022-08-20T00:40:55;18.30;99.90
13798;DHT22;6970;51.340;3.240;2022-08-20T00:44:17;18.40;99.90
13798;DHT22;6970;51.340;3.240;2022-08-20T00:46:38;18.40;99.90
13798;DHT22;6970;51.340;3.240;2022-08-20T00:49:07;18.40;99.90
13798;DHT22;6970;51.340;3.240;2022-08-20T00:51:44;18.40;99.90
13798;DHT22;6970;51.340;3.240;2022-08-20T00:54:23;18.50;99.90
13798;DHT22;6970;51.340;3.240;2022-08-20T00:57:04;18.60;99.90
13798;DHT22;6970;51.340;3.240;2022-08-20T00:59:35;18.80;99.90
13798;DHT22;6970;51.340;3.240;2022-08-20T01:02:07;19.00;99.90
13798;DHT22;6970;51.340;3.240;2022-08-20T01:04:36;19.10;99.90
13798;DHT22;6970;51.340;3.240;2022-08-20T01:07:05;19.30;99.90
13798;DHT22;6970;51.340;3.240;2022-08-20T01:09:34;19.40;99.90
13798;DHT22;6970;51.340;3.240;2022-08-20T01:12:21;19.50;99.90
13798;DHT22;6970;51.340;3.240;2022-08-20T01:14:49;19.50;99.90
13798;DHT22;6970;51.340;3.240;2022-08-20T01:17:20;19.60;99.90
13798;DHT22;6970;51.340;3.240;2022-08-20T01:19:57;19.60;99.90
13798;DHT22;6970;51.340;3.240;2022-08-20T01:22:45;19.60;99.90
13798;DHT22;6970;51.340;3.240;2022-08-20T01:25:53;19.60;99.90
13798;DHT22;6970;51.340;3.240;2022-08-20T01:28:32;19.60;99.90
13798;DHT22;6970;51.340;3.240;2022-08-20T01:31:00;19.60;99.90
13798;DHT22;6970;51.340;3.240;2022-08-20T01:33:28;19.70;99.90
13798;DHT22;6970;51.340;3.240;2022-08-20T01:35:55;19.70;99.90
13798;DHT22;6970;51.340;3.240;2022-08-20T01:38:22;19.70;99.90
13798;DHT22;6970;51.340;3.240;2022-08-20T01:43:38;19.70;99.90
13798;DHT22;6970;51.340;3.240;2022-08-20T01:46:10;19.70;99.90
13798;DHT22;6970;51.340;3.240;2022-08-20T01:48:39;19.70;99.90
13798;DHT22;6970;51.340;3.240;2022-08-20T01:51:18;19.70;99.90
13798;DHT22;6970;51.340;3.240;2022-08-20T01:53:48;19.70;99.90
13798;DHT22;6970;51.340;3.240;2022-08-20T01:56:21;19.70;99.90
13798;DHT22;6970;51.340;3.240;2022-08-20T01:58:51;19.80;99.90
13798;DHT22;6970;51.340;3.240;2022-08-20T02:01:24;19.80;99.90
13798;DHT22;6970;51.340;3.240;2022-08-20T02:03:52;19.80;99.90
13798;DHT22;6970;51.340;3.240;2022-08-20T02:06:21;19.70;99.90
13798;DHT22;6970;51.340;3.240;2022-08-20T02:08:55;19.70;99.90
13798;DHT22;6970;51.340;3.240;2022-08-20T02:11:23;19.70;99.90
13798;DHT22;6970;51.340;3.240;2022-08-20T02:13:51;19.70;99.90
13798;DHT22;6970;51.340;3.240;2022-08-20T02:16:31;19.60;99.90
13798;DHT22;6970;51.340;3.240;2022-08-20T02:19:26;19.70;99.90
13798;DHT22;6970;51.340;3.240;2022-08-20T02:21:56;19.60;99.90
13798;DHT22;6970;51.340;3.240;2022-08-20T02:24:24;19.60;99.90
13798;DHT22;6970;51.340;3.240;2022-08-20T02:26:51;19.60;99.90
13798;DHT22;6970;51.340;3.240;2022-08-20T02:29:18;19.60;99.90
13798;DHT22;6970;51.340;3.240;2022-08-20T02:31:45;19.60;99.90
13798;DHT22;6970;51.340;3.240;2022-08-20T02:34:33;19.50;99.90
13798;DHT22;6970;51.340;3.240;2022-08-20T02:37:01;19.50;99.90
13798;DHT22;6970;51.340;3.240;2022-08-20T02:39:29;19.50;99.90
13798;DHT22;6970;51.340;3.240;2022-08-20T02:41:56;19.50;99.90
13798;DHT22;6970;51.340;3.240;2022-08-20T02:44:23;19.50;99.90
13798;DHT22;6970;51.340;3.240;2022-08-20T02:46:50;19.50;99.90
13798;DHT22;6970;51.340;3.240;2022-08-20T02:49:17;19.50;99.90
13798;DHT22;6970;51.340;3.240;2022-08-20T02:51:45;19.50;99.90
13798;DHT22;6970;51.340;3.240;2022-08-20T02:54:13;19.50;99.90
13798;DHT22;6970;51.340;3.240;2022-08-20T02:56:40;19.50;99.90
13798;DHT22;6970;51.340;3.240;2022-08-20T02:59:07;19.50;99.90
13798;DHT22;6970;51.340;3.240;2022-08-20T03:01:38;19.50;99.90
13798;DHT22;6970;51.340;3.240;2022-08-20T03:04:05;19.40;99.90
13798;DHT22;6970;51.340;3.240;2022-08-20T03:06:32;19.40;99.90
13798;DHT22;6970;51.340;3.240;2022-08-20T03:08:59;19.40;99.90
13798;DHT22;6970;51.340;3.240;2022-08-20T03:11:26;19.40;99.90
13798;DHT22;6970;51.340;3.240;2022-08-20T03:13:54;19.40;99.90
13798;DHT22;6970;51.340;3.240;2022-08-20T03:16:24;19.40;99.90
13798;DHT22;6970;51.340;3.240;2022-08-20T03:18:50;19.30;99.90
13798;DHT22;6970;51.340;3.240;2022-08-20T03:21:17;19.30;99.90
13798;DHT22;6970;51.340;3.240;2022-08-20T03:23:44;19.30;99.90
13798;DHT22;6970;51.340;3.240;2022-08-20T03:26:12;19.20;99.90
13798;DHT22;6970;51.340;3.240;2022-08-20T03:28:40;19.20;99.90
13798;DHT22;6970;51.340;3.240;2022-08-20T03:31:07;19.20;99.90
13798;DHT22;6970;51.340;3.240;2022-08-20T03:33:34;19.20;99.90
13798;DHT22;6970;51.340;3.240;2022-08-20T03:36:02;19.10;99.90
13798;DHT22;6970;51.340;3.240;2022-08-20T03:38:30;19.10;99.90
13798;DHT22;6970;51.340;3.240;2022-08-20T03:41:00;19.00;99.90
13798;DHT22;6970;51.340;3.240;2022-08-20T03:43:27;19.00;99.90
13798;DHT22;6970;51.340;3.240;2022-08-20T03:45:55;19.00;99.90
13798;DHT22;6970;51.340;3.240;2022-08-20T03:48:22;18.90;99.90
13798;DHT22;6970;51.340;3.240;2022-08-20T03:50:49;18.90;99.90
13798;DHT22;6970;51.340;3.240;2022-08-20T03:53:17;18.90;99.90
13798;DHT22;6970;51.340;3.240;2022-08-20T03:55:46;18.90;99.90
13798;DHT22;6970;51.340;3.240;2022-08-20T03:58:20;18.80;99.90
13798;DHT22;6970;51.340;3.240;2022-08-20T04:01:01;18.80;99.90
13798;DHT22;6970;51.340;3.240;2022-08-20T04:03:29;18.80;99.90
13798;DHT22;6970;51.340;3.240;2022-08-20T04:05:56;18.80;99.90
13798;DHT22;6970;51.340;3.240;2022-08-20T04:08:26;18.70;99.90
13798;DHT22;6970;51.340;3.240;2022-08-20T04:10:54;18.70;99.90
13798;DHT22;6970;51.340;3.240;2022-08-20T04:13:24;18.70;99.90
13798;DHT22;6970;51.340;3.240;2022-08-20T04:15:51;18.70;99.90
13798;DHT22;6970;51.340;3.240;2022-08-20T04:18:22;18.60;99.90
13798;DHT22;6970;51.340;3.240;2022-08-20T04:20:50;18.50;99.90
13798;DHT22;6970;51.340;3.240;2022-08-20T04:23:19;18.50;99.90
13798;DHT22;6970;51.340;3.240;2022-08-20T04:25:47;18.50;99.90
13798;DHT22;6970;51.340;3.240;2022-08-20T04:28:18;18.50;99.90
13798;DHT22;6970;51.340;3.240;2022-08-20T04:30:54;18.50;99.90
13798;DHT22;6970;51.340;3.240;2022-08-20T04:33:21;18.40;99.90
13798;DHT22;6970;51.340;3.240;2022-08-20T04:36:02;18.40;99.90
13798;DHT22;6970;51.340;3.240;2022-08-20T04:38:32;18.40;99.90
13798;DHT22;6970;51.340;3.240;2022-08-20T04:41:20;18.30;99.90
13798;DHT22;6970;51.340;3.240;2022-08-20T04:43:53;18.30;99.90
13798;DHT22;6970;51.340;3.240;2022-08-20T04:46:23;18.20;99.90
13798;DHT22;6970;51.340;3.240;2022-08-20T04:48:52;18.30;99.90
13798;DHT22;6970;51.340;3.240;2022-08-20T04:51:19;18.20;99.90
13798;DHT22;6970;51.340;3.240;2022-08-20T04:53:52;18.20;99.90
13798;DHT22;6970;51.340;3.240;2022-08-20T04:56:21;18.20;99.90
13798;DHT22;6970;51.340;3.240;2022-08-20T04:58:50;18.20;99.90
13798;DHT22;6970;51.340;3.240;2022-08-20T05:01:18;18.20;99.90
13798;DHT22;6970;51.340;3.240;2022-08-20T05:03:46;18.10;99.90
13798;DHT22;6970;51.340;3.240;2022-08-20T05:06:14;18.10;99.90
13798;DHT22;6970;51.340;3.240;2022-08-20T05:08:42;18.10;99.90
13798;DHT22;6970;51.340;3.240;2022-08-20T05:11:10;18.10;99.90
13798;DHT22;6970;51.340;3.240;2022-08-20T05:13:57;18.10;99.90
13798;DHT22;6970;51.340;3.240;2022-08-20T05:16:24;18.10;99.90
13798;DHT22;6970;51.340;3.240;2022-08-20T05:18:53;18.10;99.90
13798;DHT22;6970;51.340;3.240;2022-08-20T05:21:20;18.10;99.90
13798;DHT22;6970;51.340;3.240;2022-08-20T05:23:47;18.20;99.90
13798;DHT22;6970;51.340;3.240;2022-08-20T05:26:15;18.20;99.90
13798;DHT22;6970;51.340;3.240;2022-08-20T05:28:43;18.30;99.90
13798;DHT22;6970;51.340;3.240;2022-08-20T05:31:27;18.40;99.90
13798;DHT22;6970;51.340;3.240;2022-08-20T05:34:00;18.40;99.90
13798;DHT22;6970;51.340;3.240;2022-08-20T05:36:27;18.50;99.90
13798;DHT22;6970;51.340;3.240;2022-08-20T05:38:54;18.70;99.90
13798;DHT22;6970;51.340;3.240;2022-08-20T05:41:21;18.70;99.90
13798;DHT22;6970;51.340;3.240;2022-08-20T05:43:57;18.80;99.90
13798;DHT22;6970;51.340;3.240;2022-08-20T05:46:28;18.90;99.90
13798;DHT22;6970;51.340;3.240;2022-08-20T05:48:59;19.00;99.90
13798;DHT22;6970;51.340;3.240;2022-08-20T05:51:28;19.00;99.90
13798;DHT22;6970;51.340;3.240;2022-08-20T05:53:55;19.10;99.90
13798;DHT22;6970;51.340;3.240;2022-08-20T05:56:28;19.10;99.90
13798;DHT22;6970;51.340;3.240;2022-08-20T05:59:17;19.20;99.90
13798;DHT22;6970;51.340;3.240;2022-08-20T06:02:18;19.30;99.90
13798;DHT22;6970;51.340;3.240;2022-08-20T06:05:04;19.30;99.90
13798;DHT22;6970;51.340;3.240;2022-08-20T06:07:32;19.40;99.90
13798;DHT22;6970;51.340;3.240;2022-08-20T06:10:03;19.50;99.90
13798;DHT22;6970;51.340;3.240;2022-08-20T06:12:37;19.50;99.90
13798;DHT22;6970;51.340;3.240;2022-08-20T06:15:07;19.60;99.90
13798;DHT22;6970;51.340;3.240;2022-08-20T06:17:37;19.50;99.90
13798;DHT22;6970;51.340;3.240;2022-08-20T06:20:07;19.50;99.90
13798;DHT22;6970;51.340;3.240;2022-08-20T06:22:38;19.50;99.90
13798;DHT22;6970;51.340;3.240;2022-08-20T06:25:08;19.50;99.90
13798;DHT22;6970;51.340;3.240;2022-08-20T06:27:42;19.60;99.90
13798;DHT22;6970;51.340;3.240;2022-08-20T06:30:13;19.60;99.90
13798;DHT22;6970;51.340;3.240;2022-08-20T06:32:44;19.70;99.90
13798;DHT22;6970;51.340;3.240;2022-08-20T06:35:14;19.80;99.90
13798;DHT22;6970;51.340;3.240;2022-08-20T06:37:52;19.90;99.90
13798;DHT22;6970;51.340;3.240;2022-08-20T06:40:23;20.00;99.90
13798;DHT22;6970;51.340;3.240;2022-08-20T06:42:54;20.20;99.90
13798;DHT22;6970;51.340;3.240;2022-08-20T06:45:26;20.40;99.90
13798;DHT22;6970;51.340;3.240;2022-08-20T06:47:55;20.50;99.90
13798;DHT22;6970;51.340;3.240;2022-08-20T06:50:30;20.60;99.90
13798;DHT22;6970;51.340;3.240;2022-08-20T06:52:58;20.80;99.90
13798;DHT22;6970;51.340;3.240;2022-08-20T06:55:25;21.00;99.90
13798;DHT22;6970;51.340;3.240;2022-08-20T06:58:04;21.20;99.90
13798;DHT22;6970;51.340;3.240;2022-08-20T07:00:32;21.40;99.90
13798;DHT22;6970;51.340;3.240;2022-08-20T07:03:00;21.50;99.90
13798;DHT22;6970;51.340;3.240;2022-08-20T07:05:34;21.60;99.90
13798;DHT22;6970;51.340;3.240;2022-08-20T07:08:02;21.80;99.90
13798;DHT22;6970;51.340;3.240;2022-08-20T07:10:30;21.90;99.90
13798;DHT22;6970;51.340;3.240;2022-08-20T07:12:57;22.00;99.90
13798;DHT22;6970;51.340;3.240;2022-08-20T07:15:26;22.30;99.90
13798;DHT22;6970;51.340;3.240;2022-08-20T07:17:58;22.50;99.90
13798;DHT22;6970;51.340;3.240;2022-08-20T07:20:28;22.80;99.90
13798;DHT22;6970;51.340;3.240;2022-08-20T07:22:57;23.00;99.90
13798;DHT22;6970;51.340;3.240;2022-08-20T07:25:25;23.10;99.90
13798;DHT22;6970;51.340;3.240;2022-08-20T07:28:10;23.20;99.90
13798;DHT22;6970;51.340;3.240;2022-08-20T07:30:38;23.40;99.90
13798;DHT22;6970;51.340;3.240;2022-08-20T07:33:38;23.60;99.90
13798;DHT22;6970;51.340;3.240;2022-08-20T07:36:24;23.80;99.90
13798;DHT22;6970;51.340;3.240;2022-08-20T07:38:54;24.00;99.90
13798;DHT22;6970;51.340;3.240;2022-08-20T07:44:34;24.20;99.90
13798;DHT22;6970;51.340;3.240;2022-08-20T07:47:04;24.00;99.90
13798;DHT22;6970;51.340;3.240;2022-08-20T07:49:36;23.90;99.90
13798;DHT22;6970;51.340;3.240;2022-08-20T07:52:04;23.70;99.90
13798;DHT22;6970;51.340;3.240;2022-08-20T07:54:32;23.60;99.90
13798;DHT22;6970;51.340;3.240;2022-08-20T07:57:01;23.40;99.90
13798;DHT22;6970;51.340;3.240;2022-08-20T07:59:29;23.20;99.90
13798;DHT22;6970;51.340;3.240;2022-08-20T08:01:58;22.90;99.90
13798;DHT22;6970;51.340;3.240;2022-08-20T08:04:25;22.60;99.90
13798;DHT22;6970;51.340;3.240;2022-08-20T08:06:52;22.40;99.90
13798;DHT22;6970;51.340;3.240;2022-08-20T08:09:19;22.10;99.90
13798;DHT22;6970;51.340;3.240;2022-08-20T08:11:48;21.90;99.90
13798;DHT22;6970;51.340;3.240;2022-08-20T08:14:18;21.90;99.90
13798;DHT22;6970;51.340;3.240;2022-08-20T08:16:51;21.80;99.90
13798;DHT22;6970;51.340;3.240;2022-08-20T08:19:19;21.80;99.90
13798;DHT22;6970;51.340;3.240;2022-08-20T08:21:46;21.80;99.90
13798;DHT22;6970;51.340;3.240;2022-08-20T08:24:13;21.90;99.90
13798;DHT22;6970;51.340;3.240;2022-08-20T08:26:47;21.80;99.90
13798;DHT22;6970;51.340;3.240;2022-08-20T08:29:16;22.00;99.90
13798;DHT22;6970;51.340;3.240;2022-08-20T08:31:43;22.10;99.90
13798;DHT22;6970;51.340;3.240;2022-08-20T08:34:10;22.40;99.90
13798;DHT22;6970;51.340;3.240;2022-08-20T08:36:37;22.60;99.90
13798;DHT22;6970;51.340;3.240;2022-08-20T08:39:05;22.80;99.90
13798;DHT22;6970;51.340;3.240;2022-08-20T08:41:44;22.80;99.70
13798;DHT22;6970;51.340;3.240;2022-08-20T08:44:36;22.70;99.20
13798;DHT22;6970;51.340;3.240;2022-08-20T08:47:09;22.50;99.00
13798;DHT22;6970;51.340;3.240;2022-08-20T08:49:45;22.30;99.30
13798;DHT22;6970;51.340;3.240;2022-08-20T08:52:39;22.20;99.30
13798;DHT22;6970;51.340;3.240;2022-08-20T08:55:10;22.20;99.70
13798;DHT22;6970;51.340;3.240;2022-08-20T08:57:41;22.20;99.80
13798;DHT22;6970;51.340;3.240;2022-08-20T09:00:12;22.20;99.90
13798;DHT22;6970;51.340;3.240;2022-08-20T09:02:53;22.10;99.90
13798;DHT22;6970;51.340;3.240;2022-08-20T09:05:22;22.10;99.90
13798;DHT22;6970;51.340;3.240;2022-08-20T09:07:53;22.10;99.90
13798;DHT22;6970;51.340;3.240;2022-08-20T09:10:21;22.00;99.90
13798;DHT22;6970;51.340;3.240;2022-08-20T09:12:49;22.10;99.90
13798;DHT22;6970;51.340;3.240;2022-08-20T09:15:17;22.20;99.90
13798;DHT22;6970;51.340;3.240;2022-08-20T09:17:45;22.30;99.90
13798;DHT22;6970;51.340;3.240;2022-08-20T09:20:12;22.50;99.60
13798;DHT22;6970;51.340;3.240;2022-08-20T09:22:39;22.60;98.50
13798;DHT22;6970;51.340;3.240;2022-08-20T09:25:07;22.70;98.20
13798;DHT22;6970;51.340;3.240;2022-08-20T09:27:34;22.90;98.30
13798;DHT22;6970;51.340;3.240;2022-08-20T09:30:04;23.50;97.70
13798;DHT22;6970;51.340;3.240;2022-08-20T09:32:32;24.10;97.00
13798;DHT22;6970;51.340;3.240;2022-08-20T09:34:59;24.60;96.10
13798;DHT22;6970;51.340;3.240;2022-08-20T09:37:29;25.20;95.80
13798;DHT22;6970;51.340;3.240;2022-08-20T09:40:05;25.70;94.30
13798;DHT22;6970;51.340;3.240;2022-08-20T09:42:35;26.00;92.80
13798;DHT22;6970;51.340;3.240;2022-08-20T09:45:08;25.90;91.90
13798;DHT22;6970;51.340;3.240;2022-08-20T09:47:37;25.70;91.80
13798;DHT22;6970;51.340;3.240;2022-08-20T09:50:10;25.60;91.90
13798;DHT22;6970;51.340;3.240;2022-08-20T09:52:40;25.90;92.00
13798;DHT22;6970;51.340;3.240;2022-08-20T09:55:26;26.20;90.60
13798;DHT22;6970;51.340;3.240;2022-08-20T09:57:54;26.60;90.90
13798;DHT22;6970;51.340;3.240;2022-08-20T10:00:21;26.90;90.60
13798;DHT22;6970;51.340;3.240;2022-08-20T10:02:48;27.30;90.10
13798;DHT22;6970;51.340;3.240;2022-08-20T10:05:15;27.40;87.60
13798;DHT22;6970;51.340;3.240;2022-08-20T10:07:42;27.60;88.40
13798;DHT22;6970;51.340;3.240;2022-08-20T10:10:12;27.70;88.00
13798;DHT22;6970;51.340;3.240;2022-08-20T10:12:40;27.80;88.10
13798;DHT22;6970;51.340;3.240;2022-08-20T10:15:09;28.00;88.00
13798;DHT22;6970;51.340;3.240;2022-08-20T10:17:41;28.20;88.90
13798;DHT22;6970;51.340;3.240;2022-08-20T10:20:10;28.30;86.50
13798;DHT22;6970;51.340;3.240;2022-08-20T10:22:38;28.10;86.60
13798;DHT22;6970;51.340;3.240;2022-08-20T10:25:05;28.20;86.70
13798;DHT22;6970;51.340;3.240;2022-08-20T10:27:33;28.50;86.70
13798;DHT22;6970;51.340;3.240;2022-08-20T10:30:01;28.40;85.00
13798;DHT22;6970;51.340;3.240;2022-08-20T10:32:28;27.80;85.80
13798;DHT22;6970;51.340;3.240;2022-08-20T10:34:55;27.60;87.90
13798;DHT22;6970;51.340;3.240;2022-08-20T10:37:24;28.00;87.80
13798;DHT22;6970;51.340;3.240;2022-08-20T10:39:52;28.30;85.60
13798;DHT22;6970;51.340;3.240;2022-08-20T10:42:19;28.40;84.50
13798;DHT22;6970;51.340;3.240;2022-08-20T10:44:47;28.50;84.40
13798;DHT22;6970;51.340;3.240;2022-08-20T10:49:50;28.70;83.30
13798;DHT22;6970;51.340;3.240;2022-08-20T10:52:18;28.50;82.90
13798;DHT22;6970;51.340;3.240;2022-08-20T10:54:45;28.20;83.70
13798;DHT22;6970;51.340;3.240;2022-08-20T10:57:16;28.30;84.90
13798;DHT22;6970;51.340;3.240;2022-08-20T10:59:45;28.40;83.90
13798;DHT22;6970;51.340;3.240;2022-08-20T11:02:13;28.40;83.60
13798;DHT22;6970;51.340;3.240;2022-08-20T11:04:40;28.30;83.00
13798;DHT22;6970;51.340;3.240;2022-08-20T11:09:41;28.50;81.90
13798;DHT22;6970;51.340;3.240;2022-08-20T11:12:09;28.60;80.30
13798;DHT22;6970;51.340;3.240;2022-08-20T11:14:36;28.40;81.30
13798;DHT22;6970;51.340;3.240;2022-08-20T11:17:04;28.40;82.40
13798;DHT22;6970;51.340;3.240;2022-08-20T11:19:32;28.60;81.20
13798;DHT22;6970;51.340;3.240;2022-08-20T11:21:59;28.50;81.00
13798;DHT22;6970;51.340;3.240;2022-08-20T11:24:26;28.60;80.20
13798;DHT22;6970;51.340;3.240;2022-08-20T11:26:53;28.50;79.00
13798;DHT22;6970;51.340;3.240;2022-08-20T11:29:21;28.30;81.40
13798;DHT22;6970;51.340;3.240;2022-08-20T11:31:48;28.30;81.70
13798;DHT22;6970;51.340;3.240;2022-08-20T11:34:15;28.20;83.30
13798;DHT22;6970;51.340;3.240;2022-08-20T11:36:43;28.30;81.50
13798;DHT22;6970;51.340;3.240;2022-08-20T11:39:11;28.30;80.90
13798;DHT22;6970;51.340;3.240;2022-08-20T11:41:38;28.20;81.00
13798;DHT22;6970;51.340;3.240;2022-08-20T11:44:11;28.40;81.60
13798;DHT22;6970;51.340;3.240;2022-08-20T11:46:47;28.50;80.10
13798;DHT22;6970;51.340;3.240;2022-08-20T11:49:14;28.50;80.40
13798;DHT22;6970;51.340;3.240;2022-08-20T11:51:42;28.40;78.60
13798;DHT22;6970;51.340;3.240;2022-08-20T11:54:16;28.40;78.50
13798;DHT22;6970;51.340;3.240;2022-08-20T11:56:43;28.50;79.00
13798;DHT22;6970;51.340;3.240;2022-08-20T11:59:12;28.60;79.60
13798;DHT22;6970;51.340;3.240;2022-08-20T12:01:41;28.60;80.40
13798;DHT22;6970;51.340;3.240;2022-08-20T12:04:28;28.60;77.50
13798;DHT22;6970;51.340;3.240;2022-08-20T12:07:07;28.60;78.70
13798;DHT22;6970;51.340;3.240;2022-08-20T12:09:34;28.40;78.60
13798;DHT22;6970;51.340;3.240;2022-08-20T12:12:06;28.70;78.40
13798;DHT22;6970;51.340;3.240;2022-08-20T12:14:34;28.80;78.60
13798;DHT22;6970;51.340;3.240;2022-08-20T12:17:15;28.90;77.90
13798;DHT22;6970;51.340;3.240;2022-08-20T12:19:47;28.80;77.00
13798;DHT22;6970;51.340;3.240;2022-08-20T12:22:14;28.90;76.80
13798;DHT22;6970;51.340;3.240;2022-08-20T12:24:52;29.00;76.80
13798;DHT22;6970;51.340;3.240;2022-08-20T12:27:20;29.00;76.90
13798;DHT22;6970;51.340;3.240;2022-08-20T12:29:50;28.90;78.10
13798;DHT22;6970;51.340;3.240;2022-08-20T12:32:24;28.70;77.60
13798;DHT22;6970;51.340;3.240;2022-08-20T12:34:52;28.60;79.10
13798;DHT22;6970;51.340;3.240;2022-08-20T12:37:21;28.80;78.40
13798;DHT22;6970;51.340;3.240;2022-08-20T12:39:51;28.70;77.80
13798;DHT22;6970;51.340;3.240;2022-08-20T12:42:19;28.60;78.10
13798;DHT22;6970;51.340;3.240;2022-08-20T12:44:46;28.40;79.00
13798;DHT22;6970;51.340;3.240;2022-08-20T12:47:25;28.40;79.50
13798;DHT22;6970;51.340;3.240;2022-08-20T12:49:55;28.60;79.00
13798;DHT22;6970;51.340;3.240;2022-08-20T12:52:24;28.60;79.40
13798;DHT22;6970;51.340;3.240;2022-08-20T12:54:51;28.80;76.70
13798;DHT22;6970;51.340;3.240;2022-08-20T12:57:37;28.70;77.00
13798;DHT22;6970;51.340;3.240;2022-08-20T13:00:11;28.90;76.60
13798;DHT22;6970;51.340;3.240;2022-08-20T13:02:38;28.90;75.60
13798;DHT22;6970;51.340;3.240;2022-08-20T13:05:08;28.80;74.30
13798;DHT22;6970;51.340;3.240;2022-08-20T13:07:36;28.60;73.70
13798;DHT22;6970;51.340;3.240;2022-08-20T13:10:05;28.40;74.60
13798;DHT22;6970;51.340;3.240;2022-08-20T13:12:33;28.30;75.50
13798;DHT22;6970;51.340;3.240;2022-08-20T13:15:01;28.50;76.40
13798;DHT22;6970;51.340;3.240;2022-08-20T13:17:28;28.50;75.50
13798;DHT22;6970;51.340;3.240;2022-08-20T13:20:07;28.30;76.10
13798;DHT22;6970;51.340;3.240;2022-08-20T13:22:35;28.30;74.90
13798;DHT22;6970;51.340;3.240;2022-08-20T13:25:03;28.40;75.50
13798;DHT22;6970;51.340;3.240;2022-08-20T13:27:30;28.40;73.70
13798;DHT22;6970;51.340;3.240;2022-08-20T13:29:57;28.40;74.60
13798;DHT22;6970;51.340;3.240;2022-08-20T13:32:25;28.40;75.20
13798;DHT22;6970;51.340;3.240;2022-08-20T13:34:52;28.50;75.20
13798;DHT22;6970;51.340;3.240;2022-08-20T13:37:22;28.40;74.60
13798;DHT22;6970;51.340;3.240;2022-08-20T13:39:52;28.60;75.20
13798;DHT22;6970;51.340;3.240;2022-08-20T13:42:20;28.70;75.10
13798;DHT22;6970;51.340;3.240;2022-08-20T13:44:47;28.80;73.90
13798;DHT22;6970;51.340;3.240;2022-08-20T13:47:22;28.60;73.90
13798;DHT22;6970;51.340;3.240;2022-08-20T13:49:58;28.50;74.10
13798;DHT22;6970;51.340;3.240;2022-08-20T13:52:25;28.60;74.90
13798;DHT22;6970;51.340;3.240;2022-08-20T13:54:53;28.50;75.50
13798;DHT22;6970;51.340;3.240;2022-08-20T13:57:22;28.30;75.90
13798;DHT22;6970;51.340;3.240;2022-08-20T13:59:52;28.40;76.90
13798;DHT22;6970;51.340;3.240;2022-08-20T14:02:20;28.40;77.50
13798;DHT22;6970;51.340;3.240;2022-08-20T14:04:49;28.30;77.70
13798;DHT22;6970;51.340;3.240;2022-08-20T14:07:25;28.20;78.30
13798;DHT22;6970;51.340;3.240;2022-08-20T14:10:00;28.20;78.70
13798;DHT22;6970;51.340;3.240;2022-08-20T14:12:29;28.10;78.80
13798;DHT22;6970;51.340;3.240;2022-08-20T14:14:57;28.00;79.50
13798;DHT22;6970;51.340;3.240;2022-08-20T14:17:27;28.00;80.00
13798;DHT22;6970;51.340;3.240;2022-08-20T14:20:00;28.00;79.40
13798;DHT22;6970;51.340;3.240;2022-08-20T14:22:29;27.90;78.90
13798;DHT22;6970;51.340;3.240;2022-08-20T14:24:57;28.00;79.80
13798;DHT22;6970;51.340;3.240;2022-08-20T14:27:30;28.00;80.20
13798;DHT22;6970;51.340;3.240;2022-08-20T14:29:57;28.00;80.70
13798;DHT22;6970;51.340;3.240;2022-08-20T14:32:25;28.10;81.10
13798;DHT22;6970;51.340;3.240;2022-08-20T14:34:53;28.10;80.80
13798;DHT22;6970;51.340;3.240;2022-08-20T14:37:23;27.90;80.30
13798;DHT22;6970;51.340;3.240;2022-08-20T14:39:54;27.70;81.90
13798;DHT22;6970;51.340;3.240;2022-08-20T14:42:24;27.70;81.80
13798;DHT22;6970;51.340;3.240;2022-08-20T14:44:53;27.80;80.90
13798;DHT22;6970;51.340;3.240;2022-08-20T14:47:24;27.70;80.70
13798;DHT22;6970;51.340;3.240;2022-08-20T14:49:53;27.80;80.20
13798;DHT22;6970;51.340;3.240;2022-08-20T14:52:22;27.90;79.50
13798;DHT22;6970;51.340;3.240;2022-08-20T14:54:53;27.70;79.60
13798;DHT22;6970;51.340;3.240;2022-08-20T14:57:21;27.70;80.50
13798;DHT22;6970;51.340;3.240;2022-08-20T14:59:51;27.60;80.40
13798;DHT22;6970;51.340;3.240;2022-08-20T15:02:18;27.50;80.80
13798;DHT22;6970;51.340;3.240;2022-08-20T15:04:45;27.30;81.30
13798;DHT22;6970;51.340;3.240;2022-08-20T15:07:31;27.30;80.80
13798;DHT22;6970;51.340;3.240;2022-08-20T15:09:59;27.30;80.50
13798;DHT22;6970;51.340;3.240;2022-08-20T15:12:27;27.30;80.80
13798;DHT22;6970;51.340;3.240;2022-08-20T15:14:54;27.40;80.90
13798;DHT22;6970;51.340;3.240;2022-08-20T15:17:28;27.30;80.70
13798;DHT22;6970;51.340;3.240;2022-08-20T15:19:56;27.30;81.00
13798;DHT22;6970;51.340;3.240;2022-08-20T15:22:23;27.30;81.00
13798;DHT22;6970;51.340;3.240;2022-08-20T15:24:50;27.30;80.90
13798;DHT22;6970;51.340;3.240;2022-08-20T15:27:24;27.30;80.90
13798;DHT22;6970;51.340;3.240;2022-08-20T15:29:51;27.20;81.60
13798;DHT22;6970;51.340;3.240;2022-08-20T15:32:19;27.20;80.90
13798;DHT22;6970;51.340;3.240;2022-08-20T15:34:48;27.10;79.20
13798;DHT22;6970;51.340;3.240;2022-08-20T15:37:19;27.00;79.70
13798;DHT22;6970;51.340;3.240;2022-08-20T15:39:48;27.10;79.60
13798;DHT22;6970;51.340;3.240;2022-08-20T15:42:16;27.00;79.20
13798;DHT22;6970;51.340;3.240;2022-08-20T15:44:43;26.90;79.60
13798;DHT22;6970;51.340;3.240;2022-08-20T15:49:42;26.90;79.90
13798;DHT22;6970;51.340;3.240;2022-08-20T15:52:09;27.00;79.90
13798;DHT22;6970;51.340;3.240;2022-08-20T15:54:37;26.90;79.90
13798;DHT22;6970;51.340;3.240;2022-08-20T15:57:22;26.80;80.20
13798;DHT22;6970;51.340;3.240;2022-08-20T16:00:08;26.90;80.60
13798;DHT22;6970;51.340;3.240;2022-08-20T16:08:07;26.80;80.80
13798;DHT22;6970;51.340;3.240;2022-08-20T16:13:11;26.70;80.80
13798;DHT22;6970;51.340;3.240;2022-08-20T16:15:45;26.70;80.90
13798;DHT22;6970;51.340;3.240;2022-08-20T16:18:26;26.60;81.50
13798;DHT22;6970;51.340;3.240;2022-08-20T16:20:56;26.60;82.00
13798;DHT22;6970;51.340;3.240;2022-08-20T16:23:33;26.40;81.90
13798;DHT22;6970;51.340;3.240;2022-08-20T16:31:36;26.20;83.90
13798;DHT22;6970;51.340;3.240;2022-08-20T16:39:45;25.90;84.90